Time;durP1;ratioP1;P1;durP2;ratioP2;P2;SDS_P1;SDS_P2;PMS_P1;PMS_P2;Temp;Humidity;BMP_temperature;BMP_pressure;BME280_temperature;BME280_humidity;BME280_pressure;Samples;Min_cycle;Max_cycle;Signal;HPM_P1;HPM_P2
2023/05/10 00:00:29;;;;;;;4.93;2.45;;;;;;;15.46;80.53;99982.00;4147964;28;20096;-62
2023/05/10 00:02:34;;;;;;;3.28;1.70;;;;;;;15.43;80.77;99981.16;4147638;28;20041;-62
2023/05/10 00:04:37;;;;;;;3.85;1.55;;;;;;;15.39;80.28;99989.94;4147775;28;20038;-61
2023/05/10 00:06:40;;;;;;;3.20;2.10;;;;;;;15.34;80.50;99983.00;4147869;28;20042;-62
2023/05/10 00:08:43;;;;;;;4.45;1.33;;;;;;;15.29;81.33;99981.34;4147866;28;20048;-62
2023/05/10 00:10:46;;;;;;;2.85;1.30;;;;;;;15.30;80.84;99990.91;4147852;28;20041;-61
2023/05/10 00:12:49;;;;;;;2.50;1.13;;;;;;;15.32;81.21;99986.56;4147550;28;20053;-62
2023/05/10 00:14:52;;;;;;;4.55;1.50;;;;;;;15.29;81.31;99987.44;4147656;28;20065;-61
2023/05/10 00:16:55;;;;;;;2.72;1.27;;;;;;;15.30;80.61;99985.69;4147772;28;20037;-61
2023/05/10 00:18:59;;;;;;;1.63;1.52;;;;;;;15.35;81.34;99986.50;4130214;28;20054;-61
2023/05/10 00:21:02;;;;;;;2.35;1.70;;;;;;;15.36;81.15;99991.72;4148150;28;20038;-61
2023/05/10 00:23:05;;;;;;;2.58;1.90;;;;;;;15.35;81.42;99996.97;4147392;28;20038;-62
2023/05/10 00:25:09;;;;;;;5.40;2.70;;;;;;;15.35;80.76;99989.97;4130231;28;20035;-61
2023/05/10 00:27:12;;;;;;;6.40;3.20;;;;;;;15.34;81.17;99993.47;4147679;28;20488;-62
2023/05/10 00:29:15;;;;;;;5.72;3.30;;;;;;;15.32;81.25;99992.63;4130352;28;20046;-61
2023/05/10 00:31:18;;;;;;;8.55;3.08;;;;;;;15.27;81.25;99986.59;4146544;28;20038;-62
2023/05/10 00:33:21;;;;;;;5.72;3.22;;;;;;;15.28;80.61;99980.47;4147395;28;20533;-61
2023/05/10 00:35:25;;;;;;;7.07;3.70;;;;;;;15.31;80.70;99980.44;4130138;28;20070;-61
2023/05/10 00:37:29;;;;;;;5.45;3.83;;;;;;;15.33;80.73;99983.03;4130211;28;20463;-61
2023/05/10 00:39:31;;;;;;;4.63;3.42;;;;;;;15.32;80.51;99969.06;4130163;28;20048;-61
2023/05/10 00:41:34;;;;;;;6.97;3.10;;;;;;;15.33;80.48;99986.53;4130159;28;20046;-61
2023/05/10 00:43:39;;;;;;;4.45;2.60;;;;;;;15.30;80.30;99986.56;4129788;28;20046;-62
2023/05/10 00:45:42;;;;;;;7.10;2.53;;;;;;;15.29;80.41;99987.44;4113979;28;20070;-61
2023/05/10 00:47:46;;;;;;;6.30;2.42;;;;;;;15.26;80.03;99986.59;4147484;28;20611;-61
2023/05/10 00:49:49;;;;;;;2.70;2.10;;;;;;;15.23;80.26;99987.53;4130113;28;20173;-62
2023/05/10 00:51:53;;;;;;;3.28;2.03;;;;;;;15.25;80.22;99990.13;4129988;28;20054;-61
2023/05/10 00:53:56;;;;;;;2.90;2.13;;;;;;;15.23;79.82;99995.38;4129786;28;20053;-61
2023/05/10 00:56:01;;;;;;;3.53;2.03;;;;;;;15.21;80.07;99996.28;4113861;28;20039;-61
2023/05/10 00:58:04;;;;;;;7.15;2.85;;;;;;;15.19;80.08;99997.16;4130041;28;20131;-62
2023/05/10 01:00:08;;;;;;;5.38;3.70;;;;;;;15.18;80.16;99992.81;4130062;28;20436;-62
2023/05/10 01:02:11;;;;;;;7.25;4.00;;;;;;;15.14;80.30;99992.88;4129819;28;20050;-62
2023/05/10 01:04:16;;;;;;;4.25;2.78;;;;;;;15.10;79.31;99996.41;4130396;28;20043;-61
2023/05/10 01:06:19;;;;;;;5.57;2.70;;;;;;;15.09;79.96;99989.44;4133218;28;20034;-61
2023/05/10 01:08:23;;;;;;;6.93;2.58;;;;;;;15.05;79.62;99992.97;4133096;28;20048;-62
2023/05/10 01:10:26;;;;;;;2.25;2.05;;;;;;;15.00;79.67;99988.66;4150508;28;20401;-62
2023/05/10 01:12:29;;;;;;;2.45;1.90;;;;;;;15.02;79.98;99993.88;4132835;28;20048;-62
2023/05/10 01:14:32;;;;;;;3.53;2.22;;;;;;;15.04;80.09;99999.97;4132892;28;20069;-62
2023/05/10 01:16:38;;;;;;;3.97;2.35;;;;;;;15.02;80.26;99993.88;4150353;28;20042;-61
2023/05/10 01:18:42;;;;;;;1.83;1.42;;;;;;;15.00;80.27;99999.13;4133006;28;20564;-62
2023/05/10 01:20:49;;;;;;;2.35;1.70;;;;;;;15.03;79.97;99995.63;4132991;28;20058;-61
2023/05/10 01:23:15;;;;;;;3.67;1.60;;;;;;;15.04;80.02;99992.13;4132708;28;20468;-61
2023/05/10 01:25:37;;;;;;;;;;;;;;;14.92;80.10;99989.63;4133314;28;20125;-62
2023/05/10 01:28:02;;;;;;;3.88;1.88;;;;;;;14.92;80.02;100000.09;4132863;28;19984;-61
2023/05/10 01:30:44;;;;;;;3.03;1.50;;;;;;;14.89;80.30;100002.75;4132911;28;20043;-62
2023/05/10 01:32:56;;;;;;;3.58;1.50;;;;;;;14.92;79.69;100000.09;4148722;28;20056;-61
2023/05/10 01:35:03;;;;;;;2.03;1.45;;;;;;;14.96;80.17;99999.19;4150023;28;20042;-62
2023/05/10 01:37:10;;;;;;;2.88;1.50;;;;;;;14.97;79.87;100001.78;4132754;28;20042;-62
2023/05/10 01:39:18;;;;;;;3.17;1.65;;;;;;;15.01;80.58;100000.88;4132718;28;20118;-62
2023/05/10 01:41:29;;;;;;;1.75;1.30;;;;;;;15.01;80.57;100002.63;4149950;28;20046;-62
2023/05/10 01:43:35;;;;;;;2.15;1.50;;;;;;;14.98;80.53;100016.63;4132323;28;20170;-62
2023/05/10 01:45:48;;;;;;;5.47;1.60;;;;;;;15.01;79.65;100019.19;4149946;28;20049;-62
2023/05/10 01:47:59;;;;;;;2.25;1.30;;;;;;;14.99;79.90;100014.84;4132543;28;20077;-61
2023/05/10 01:50:05;;;;;;;2.75;1.30;;;;;;;14.96;80.28;100014.91;4132572;28;20113;-62
2023/05/10 01:52:12;;;;;;;1.67;1.20;;;;;;;14.95;80.69;100016.66;4132398;28;20489;-61
2023/05/10 01:54:18;;;;;;;1.45;1.20;;;;;;;14.92;80.07;100024.53;4132401;28;20042;-62
2023/05/10 01:56:26;;;;;;;2.53;1.40;;;;;;;14.96;79.81;100026.22;4132340;28;20069;-62
2023/05/10 01:58:32;;;;;;;3.20;1.40;;;;;;;14.94;79.73;100016.69;4132403;28;20427;-61
2023/05/10 02:00:37;;;;;;;5.03;1.40;;;;;;;14.90;79.73;100021.06;4132420;28;20050;-61
2023/05/10 02:02:43;;;;;;;1.40;1.05;;;;;;;14.86;79.28;100029.81;4149463;28;20076;-62
2023/05/10 02:04:50;;;;;;;2.20;1.10;;;;;;;14.84;79.70;100023.75;4132254;28;20493;-61
2023/05/10 02:06:54;;;;;;;1.10;1.00;;;;;;;14.86;79.89;100029.81;4132370;28;20042;-62
2023/05/10 02:08:58;;;;;;;1.42;1.05;;;;;;;14.86;80.15;100021.13;4132258;28;20042;-62
2023/05/10 02:11:03;;;;;;;4.90;1.35;;;;;;;14.88;79.96;100028.06;4132195;28;20038;-61
2023/05/10 02:13:07;;;;;;;1.42;1.00;;;;;;;14.86;80.18;100016.72;4149170;28;20092;-61
2023/05/10 02:15:12;;;;;;;1.90;1.40;;;;;;;14.82;79.68;100022.88;4149259;28;20096;-61
2023/05/10 02:17:16;;;;;;;3.00;1.35;;;;;;;14.82;80.37;100022.88;4132148;28;20417;-62
2023/05/10 02:19:21;;;;;;;6.20;1.33;;;;;;;14.79;80.14;100023.81;4115983;28;20073;-62
2023/05/10 02:21:26;;;;;;;3.70;1.73;;;;;;;14.81;80.20;100026.41;4132002;28;20655;-62
2023/05/10 02:23:29;;;;;;;2.78;1.63;;;;;;;14.80;79.93;100027.28;4131581;28;20430;-61
2023/05/10 02:25:33;;;;;;;1.85;1.52;;;;;;;14.80;80.23;100025.50;4131934;28;20109;-62
2023/05/10 02:27:38;;;;;;;2.10;1.10;;;;;;;14.78;79.58;100022.06;4149315;28;20034;-61
2023/05/10 02:29:41;;;;;;;1.55;1.20;;;;;;;14.74;80.46;100032.56;4131956;28;20480;-62
2023/05/10 02:31:46;;;;;;;2.83;1.52;;;;;;;14.69;80.15;100037.84;4131794;28;20050;-62
2023/05/10 02:33:50;;;;;;;7.30;1.95;;;;;;;14.66;80.14;100038.75;4131566;28;20050;-61
2023/05/10 02:35:54;;;;;;;1.52;1.17;;;;;;;14.66;79.75;100043.13;4131791;28;20578;-61
2023/05/10 02:37:59;;;;;;;1.40;1.08;;;;;;;14.64;79.60;100040.50;4149142;28;20463;-61
2023/05/10 02:40:06;;;;;;;1.55;0.95;;;;;;;14.63;79.73;100037.88;4131588;28;20046;-61
2023/05/10 02:42:10;;;;;;;2.90;1.67;;;;;;;14.62;79.73;100037.03;4148835;28;20049;-62
2023/05/10 02:44:15;;;;;;;2.85;1.20;;;;;;;14.60;80.34;100036.16;4147682;28;20145;-62
2023/05/10 02:46:19;;;;;;;2.28;1.45;;;;;;;14.61;80.63;100034.41;4131616;28;20043;-62
2023/05/10 02:48:21;;;;;;;2.47;1.40;;;;;;;14.62;80.39;100042.28;4131550;28;20046;-61
2023/05/10 02:50:28;;;;;;;1.30;1.20;;;;;;;14.64;80.58;100042.25;4131558;28;20386;-62
2023/05/10 02:52:45;;;;;;;3.28;1.70;;;;;;;14.56;79.88;100037.06;4131247;28;20395;-61
2023/05/10 02:54:53;;;;;;;1.42;1.27;;;;;;;14.59;80.74;100034.41;4131389;28;20448;-62
2023/05/10 02:56:59;;;;;;;4.15;1.30;;;;;;;14.59;80.36;100031.81;4148707;28;20041;-62
2023/05/10 02:59:02;;;;;;;2.95;1.20;;;;;;;14.60;80.00;100038.78;4131427;28;20042;-62
2023/05/10 03:01:07;;;;;;;2.00;1.52;;;;;;;14.63;81.00;100043.13;4115178;28;20053;-61
2023/05/10 03:03:10;;;;;;;1.40;1.30;;;;;;;14.64;80.08;100048.34;4148358;28;20146;-62
2023/05/10 03:05:12;;;;;;;4.38;1.60;;;;;;;14.68;80.67;100050.97;4131346;28;20433;-62
2023/05/10 03:07:16;;;;;;;3.47;1.38;;;;;;;14.65;79.99;100052.69;4131289;28;20038;-62
2023/05/10 03:09:21;;;;;;;5.03;2.20;;;;;;;14.65;79.99;100050.09;4147469;28;20488;-61
2023/05/10 03:11:30;;;;;;;;;;;;;;;14.56;80.42;100058.00;4131562;28;20089;-62
2023/05/10 03:13:46;;;;;;;5.75;1.58;;;;;;;14.61;80.48;100055.34;4130896;28;20382;-62
2023/05/10 03:15:58;;;;;;;2.38;1.42;;;;;;;14.59;80.58;100057.97;4131071;28;20051;-62
2023/05/10 03:18:07;;;;;;;2.22;1.65;;;;;;;14.58;79.70;100051.00;4131217;28;20154;-62
2023/05/10 03:20:14;;;;;;;2.72;1.70;;;;;;;14.59;80.84;100057.09;4147378;28;20053;-62
2023/05/10 03:22:25;;;;;;;1.67;1.38;;;;;;;14.56;80.56;100055.38;4130829;28;20057;-61
2023/05/10 03:24:29;;;;;;;2.83;2.03;;;;;;;14.54;80.39;100057.13;4130880;28;20043;-62
2023/05/10 03:26:37;;;;;;;2.45;1.75;;;;;;;14.53;80.70;100052.78;4130870;28;20463;-62
2023/05/10 03:28:46;;;;;;;5.50;2.33;;;;;;;14.56;80.05;100058.00;4130801;28;20043;-61
2023/05/10 03:30:50;;;;;;;3.72;2.35;;;;;;;14.57;80.61;100059.75;4114819;28;20042;-62
2023/05/10 03:32:54;;;;;;;4.78;2.50;;;;;;;14.56;80.29;100058.00;4130697;28;20223;-62
2023/05/10 03:34:56;;;;;;;6.32;3.17;;;;;;;14.53;80.01;100054.53;4130836;28;20077;-62
2023/05/10 03:37:00;;;;;;;7.03;3.75;;;;;;;14.46;80.40;100051.09;4130832;28;20042;-62
2023/05/10 03:39:06;;;;;;;5.78;2.70;;;;;;;14.43;79.94;100049.38;4130731;28;20074;-62
2023/05/10 03:41:09;;;;;;;7.90;2.90;;;;;;;14.45;79.97;100051.97;4130733;28;20097;-61
2023/05/10 03:43:13;;;;;;;4.22;2.90;;;;;;;14.45;79.75;100050.22;4130438;28;20125;-62
2023/05/10 03:45:17;;;;;;;7.80;3.63;;;;;;;14.47;80.23;100058.94;4130757;28;20050;-62
2023/05/10 03:47:20;;;;;;;4.05;3.05;;;;;;;14.48;79.58;100057.19;4130685;28;20034;-62
2023/05/10 03:49:24;;;;;;;4.72;3.25;;;;;;;14.47;79.92;100044.97;4114593;28;20053;-62
2023/05/10 03:51:28;;;;;;;5.03;2.78;;;;;;;14.46;79.49;100051.09;4148026;28;20042;-62
2023/05/10 03:53:30;;;;;;;9.45;3.22;;;;;;;14.46;80.00;100053.72;4147663;28;20177;-62
2023/05/10 03:55:35;;;;;;;4.88;3.20;;;;;;;14.47;80.35;100060.66;4114445;28;20053;-61
2023/05/10 03:57:39;;;;;;;6.60;3.47;;;;;;;14.43;80.05;100056.38;4130574;28;20092;-62
2023/05/10 03:59:44;;;;;;;9.07;3.50;;;;;;;14.39;80.20;100054.66;4130569;28;20097;-61
2023/05/10 04:01:47;;;;;;;7.07;3.35;;;;;;;14.36;80.21;100065.13;4130359;28;20043;-62
2023/05/10 04:03:50;;;;;;;4.43;3.15;;;;;;;14.30;80.07;100064.28;4130240;28;20118;-62
2023/05/10 04:05:59;;;;;;;5.38;4.03;;;;;;;14.29;79.97;100073.03;4130455;28;20505;-62
2023/05/10 04:08:02;;;;;;;5.85;3.92;;;;;;;14.22;79.70;100073.97;4114297;28;20065;-62
2023/05/10 04:10:06;;;;;;;4.93;3.60;;;;;;;14.22;79.75;100073.97;4114271;28;20047;-62
2023/05/10 04:12:09;;;;;;;7.30;4.20;;;;;;;14.19;79.87;100076.56;4147609;28;20038;-62
2023/05/10 04:14:13;;;;;;;5.03;3.85;;;;;;;14.20;80.21;100075.69;4147751;28;20455;-62
2023/05/10 04:16:17;;;;;;;6.35;4.38;;;;;;;14.20;79.55;100078.31;4147794;28;20053;-62
2023/05/10 04:18:20;;;;;;;9.32;3.78;;;;;;;14.19;79.66;100078.31;4147721;28;20042;-62
2023/05/10 04:20:22;;;;;;;4.72;3.13;;;;;;;14.15;80.06;100082.72;4130279;28;20042;-62
2023/05/10 04:22:25;;;;;;;5.00;3.58;;;;;;;14.13;80.06;100084.47;4147416;28;20037;-63
2023/05/10 04:24:28;;;;;;;5.25;3.28;;;;;;;14.12;79.59;100085.34;4147516;28;20085;-63
2023/05/10 04:26:31;;;;;;;5.05;2.83;;;;;;;14.08;79.73;100087.09;4130287;28;20046;-63
2023/05/10 04:28:34;;;;;;;9.75;3.60;;;;;;;14.12;79.18;100088.81;4147630;28;20470;-63
2023/05/10 04:30:37;;;;;;;6.40;3.17;;;;;;;14.10;78.76;100090.56;4130221;28;20044;-63
2023/05/10 04:32:41;;;;;;;5.10;2.80;;;;;;;14.15;78.30;100090.56;4129896;28;20046;-63
2023/05/10 04:34:44;;;;;;;4.75;3.20;;;;;;;14.17;78.50;100088.78;4147602;28;20085;-62
2023/05/10 04:36:47;;;;;;;4.38;2.80;;;;;;;14.10;78.95;100089.72;4147469;28;20107;-63
2023/05/10 04:38:50;;;;;;;2.78;2.25;;;;;;;14.06;79.33;100087.97;4148985;28;20045;-62
2023/05/10 04:40:52;;;;;;;3.47;3.17;;;;;;;14.08;78.87;100087.09;4133445;28;20038;-63
2023/05/10 04:42:55;;;;;;;7.38;2.75;;;;;;;14.09;78.30;100090.56;4133176;28;20101;-62
2023/05/10 04:44:58;;;;;;;8.20;2.60;;;;;;;14.05;78.90;100092.34;4133400;28;20038;-63
2023/05/10 04:47:02;;;;;;;3.42;2.58;;;;;;;14.05;78.83;100102.81;4150872;28;20042;-62
2023/05/10 04:49:06;;;;;;;5.28;2.47;;;;;;;14.05;78.87;100104.56;4133479;28;20481;-62
2023/05/10 04:51:09;;;;;;;5.20;2.40;;;;;;;13.98;79.16;100108.09;4150716;28;20511;-62
2023/05/10 04:53:12;;;;;;;3.50;2.35;;;;;;;13.99;79.60;100104.56;4150609;28;20061;-62
2023/05/10 04:55:17;;;;;;;2.83;2.20;;;;;;;13.95;79.54;100101.13;4150738;28;20045;-62
2023/05/10 04:57:21;;;;;;;3.60;1.88;;;;;;;13.98;79.52;100103.72;4150580;28;20108;-62
2023/05/10 04:59:23;;;;;;;2.30;2.10;;;;;;;14.07;79.50;100100.19;4133256;28;20480;-62
2023/05/10 05:01:26;;;;;;;4.00;2.35;;;;;;;14.14;79.57;100096.66;4150572;28;20042;-62
2023/05/10 05:03:29;;;;;;;2.25;1.90;;;;;;;14.08;79.65;100092.34;4132757;28;20056;-62
2023/05/10 05:05:34;;;;;;;4.38;2.05;;;;;;;14.09;79.51;100093.19;4150522;28;20407;-62
2023/05/10 05:07:37;;;;;;;3.33;1.95;;;;;;;14.07;80.16;100105.41;4133115;28;20442;-62
2023/05/10 05:09:40;;;;;;;3.67;2.72;;;;;;;14.08;79.49;100109.78;4133098;28;20070;-62
2023/05/10 05:11:43;;;;;;;3.03;1.92;;;;;;;14.12;79.97;100111.50;4150457;28;20435;-62
2023/05/10 05:13:45;;;;;;;5.45;1.85;;;;;;;14.13;79.62;100100.13;4150152;28;20041;-62
2023/05/10 05:15:48;;;;;;;3.53;1.92;;;;;;;14.16;79.22;100109.72;4150484;28;20052;-62
2023/05/10 05:17:51;;;;;;;4.47;2.20;;;;;;;14.18;79.88;100114.06;4150456;28;20064;-62
2023/05/10 05:19:55;;;;;;;4.28;1.85;;;;;;;14.21;79.97;100114.03;4150293;28;20526;-62
2023/05/10 05:21:59;;;;;;;2.42;2.15;;;;;;;14.22;79.73;100114.91;4150320;28;20044;-62
2023/05/10 05:24:02;;;;;;;5.50;2.45;;;;;;;14.25;79.68;100118.38;4146147;23;20042;-60
2023/05/10 05:26:05;;;;;;;3.30;2.40;;;;;;;14.25;80.33;100115.75;4134224;28;20042;-60
2023/05/10 05:28:08;;;;;;;3.35;1.98;;;;;;;14.26;80.09;100122.72;4134056;28;20436;-60
2023/05/10 05:30:12;;;;;;;3.78;2.00;;;;;;;14.26;79.97;100125.31;4134071;28;20042;-60
2023/05/10 05:32:15;;;;;;;2.15;1.90;;;;;;;14.27;80.01;100124.44;4133770;28;20500;-60
2023/05/10 05:34:20;;;;;;;5.50;2.45;;;;;;;14.29;80.02;100125.34;4132644;28;20053;-60
2023/05/10 05:36:23;;;;;;;4.05;2.17;;;;;;;14.39;79.89;100130.50;4133898;28;20077;-60
2023/05/10 05:38:27;;;;;;;3.00;2.33;;;;;;;14.41;80.14;100120.88;4116458;28;20078;-60
2023/05/10 05:40:30;;;;;;;2.42;1.95;;;;;;;14.37;80.29;100130.50;4133874;28;20054;-60
2023/05/10 05:42:32;;;;;;;5.07;3.90;;;;;;;14.42;79.98;100123.47;4133545;28;20035;-60
2023/05/10 05:44:35;;;;;;;4.47;3.17;;;;;;;14.44;80.71;100133.94;4116419;28;20039;-60
2023/05/10 05:46:38;;;;;;;4.78;3.03;;;;;;;14.49;80.51;100140.00;4116388;28;20062;-60
2023/05/10 05:48:41;;;;;;;11.32;9.50;;;;;;;14.65;79.67;100133.81;4133760;28;20077;-60
2023/05/10 05:50:45;;;;;;;11.70;5.55;;;;;;;14.58;79.54;100132.09;4133104;28;20038;-60
2023/05/10 05:52:48;;;;;;;13.48;9.60;;;;;;;14.54;79.62;100135.59;4133399;28;20130;-60
2023/05/10 05:54:52;;;;;;;12.10;9.45;;;;;;;14.51;79.92;100140.84;4133535;28;20492;-60
2023/05/10 05:56:55;;;;;;;7.22;5.95;;;;;;;14.52;80.74;100139.97;4133630;28;20038;-60
2023/05/10 05:58:58;;;;;;;5.38;3.90;;;;;;;14.58;80.49;100145.16;4133532;28;20035;-60
2023/05/10 06:01:01;;;;;;;5.97;2.88;;;;;;;14.65;79.82;100146.03;4133557;28;20045;-60
2023/05/10 06:03:04;;;;;;;3.58;3.03;;;;;;;14.65;80.54;100151.25;4133268;28;20073;-60
2023/05/10 06:05:08;;;;;;;4.78;2.97;;;;;;;14.69;81.16;100157.31;4133285;28;20042;-60
2023/05/10 06:07:11;;;;;;;6.13;2.72;;;;;;;14.70;80.78;100156.47;4116030;28;20043;-60
2023/05/10 06:09:13;;;;;;;5.43;3.10;;;;;;;14.76;80.59;100157.28;4116059;28;20035;-60
2023/05/10 06:11:18;;;;;;;5.47;3.55;;;;;;;14.82;80.12;100166.81;4116078;28;20043;-60
2023/05/10 06:13:21;;;;;;;3.22;2.70;;;;;;;14.76;80.51;100164.25;4133030;28;20046;-60
2023/05/10 06:15:24;;;;;;;4.10;2.95;;;;;;;14.73;80.88;100166.91;4133194;28;20038;-60
2023/05/10 06:17:27;;;;;;;4.40;3.10;;;;;;;14.76;81.18;100165.13;4133251;28;20552;-60
2023/05/10 06:19:30;;;;;;;4.22;2.95;;;;;;;14.86;80.55;100170.28;4133033;28;20133;-60
2023/05/10 06:21:33;;;;;;;4.88;2.90;;;;;;;14.86;80.93;100167.69;4133162;28;20062;-60
2023/05/10 06:23:36;;;;;;;3.20;2.50;;;;;;;14.86;80.40;100173.75;4132783;28;20097;-60
2023/05/10 06:25:40;;;;;;;3.75;3.05;;;;;;;14.94;79.96;100174.59;4133058;28;20039;-61
2023/05/10 06:27:44;;;;;;;4.82;3.33;;;;;;;14.90;80.11;100175.47;4115814;28;20046;-60
2023/05/10 06:29:52;;;;;;;2.92;2.30;;;;;;;14.91;80.36;100177.22;4115770;28;20049;-60
2023/05/10 06:32:08;;;;;;;6.35;2.92;;;;;;;14.94;80.49;100182.44;4132913;28;20062;-60
2023/05/10 06:34:11;;;;;;;4.13;3.22;;;;;;;14.92;81.14;100186.81;4132869;28;20081;-60
2023/05/10 06:36:14;;;;;;;4.20;2.70;;;;;;;14.99;80.72;100175.41;4115540;28;20050;-60
2023/05/10 06:38:17;;;;;;;5.15;3.67;;;;;;;15.03;80.34;100178.00;4115547;28;20043;-60
2023/05/10 06:40:20;;;;;;;6.05;2.72;;;;;;;15.04;80.51;100190.19;4132881;28;20178;-60
2023/05/10 06:42:25;;;;;;;3.95;3.13;;;;;;;15.06;80.51;100177.97;4132599;28;20517;-60
2023/05/10 06:44:29;;;;;;;6.57;3.10;;;;;;;15.07;80.96;100174.47;4115524;28;20382;-60
2023/05/10 06:46:35;;;;;;;9.18;3.28;;;;;;;15.22;80.27;100179.56;4132821;28;20042;-60
2023/05/10 06:48:38;;;;;;;4.38;3.47;;;;;;;15.22;80.74;100173.47;4132777;28;20042;-60
2023/05/10 06:50:40;;;;;;;5.95;3.50;;;;;;;15.21;79.91;100190.91;4132746;28;20050;-60
2023/05/10 06:52:43;;;;;;;4.43;3.08;;;;;;;15.15;80.55;100183.13;4115117;28;20158;-60
2023/05/10 06:54:46;;;;;;;6.70;3.20;;;;;;;15.18;79.68;100183.94;4132627;28;20047;-60
2023/05/10 06:56:49;;;;;;;5.93;3.20;;;;;;;15.23;80.27;100183.03;4115625;28;20043;-60
2023/05/10 06:58:52;;;;;;;4.75;3.55;;;;;;;15.20;80.38;100191.81;4132517;28;20089;-60
2023/05/10 07:01:02;;;;;;;4.60;2.83;;;;;;;15.22;80.72;100179.56;4132528;28;20046;-60
2023/05/10 07:03:05;;;;;;;4.35;2.85;;;;;;;15.28;80.07;100184.75;4131348;28;20129;-60
2023/05/10 07:05:09;;;;;;;3.63;3.08;;;;;;;15.33;80.30;100184.69;4132423;28;20050;-60
2023/05/10 07:07:13;;;;;;;5.13;2.53;;;;;;;15.41;80.04;100187.25;4132365;28;20050;-60
2023/05/10 07:09:16;;;;;;;5.30;3.07;;;;;;;15.56;79.46;100183.59;4132510;28;20040;-60
2023/05/10 07:11:19;;;;;;;4.53;3.20;;;;;;;15.67;79.44;100179.97;4132380;28;20346;-60
2023/05/10 07:13:21;;;;;;;4.03;3.00;;;;;;;15.65;78.37;100173.91;4115061;28;20415;-60
2023/05/10 07:15:25;;;;;;;3.20;2.50;;;;;;;15.71;78.74;100181.69;4115033;28;20035;-60
2023/05/10 07:17:29;;;;;;;4.13;3.10;;;;;;;15.74;78.87;100187.75;4132261;28;20043;-60
2023/05/10 07:19:32;;;;;;;3.83;2.17;;;;;;;15.60;78.51;100183.56;4132187;28;20101;-60
2023/05/10 07:21:35;;;;;;;2.58;2.10;;;;;;;15.62;79.02;100189.63;4132158;28;20042;-60
2023/05/10 07:23:38;;;;;;;4.53;2.45;;;;;;;15.66;79.04;100191.34;4131883;28;20050;-60
2023/05/10 07:25:41;;;;;;;4.32;2.55;;;;;;;15.81;78.82;100178.97;4115107;28;20051;-60
2023/05/10 07:27:44;;;;;;;4.18;2.40;;;;;;;15.84;78.97;100185.06;4132153;28;20049;-60
2023/05/10 07:29:47;;;;;;;4.78;2.47;;;;;;;15.92;78.88;100182.34;4114878;28;20042;-60
2023/05/10 07:31:50;;;;;;;3.88;2.60;;;;;;;15.97;78.83;100190.16;4114657;28;20051;-60
2023/05/10 07:33:54;;;;;;;3.97;2.17;;;;;;;16.01;78.02;100179.59;4131751;28;20110;-60
2023/05/10 07:35:57;;;;;;;5.43;2.35;;;;;;;16.02;77.70;100193.59;4114823;28;20138;-60
2023/05/10 07:38:00;;;;;;;3.97;2.20;;;;;;;15.94;77.44;100195.44;4131940;28;20053;-60
2023/05/10 07:40:04;;;;;;;2.60;1.90;;;;;;;16.03;77.71;100201.44;4131982;28;20045;-60
2023/05/10 07:42:07;;;;;;;2.15;1.83;;;;;;;16.13;78.17;100194.31;4131770;28;20042;-60
2023/05/10 07:44:09;;;;;;;2.53;1.83;;;;;;;16.07;77.27;100204.03;4131799;28;20135;-60
2023/05/10 07:46:12;;;;;;;3.08;1.60;;;;;;;16.11;77.75;100205.72;4131829;28;20043;-61
2023/05/10 07:48:15;;;;;;;2.33;1.88;;;;;;;16.18;76.95;100202.13;4114519;28;20058;-60
2023/05/10 07:50:20;;;;;;;3.22;2.10;;;;;;;16.20;77.23;100209.06;4114588;28;20039;-60
2023/05/10 07:52:23;;;;;;;4.85;2.38;;;;;;;16.25;77.52;100203.75;4131587;28;20042;-60
2023/05/10 07:54:26;;;;;;;1.70;1.60;;;;;;;16.23;76.85;100202.94;4131656;28;20550;-60
2023/05/10 07:56:31;;;;;;;3.42;2.03;;;;;;;16.26;76.54;100202.03;4114417;28;20047;-60
2023/05/10 07:58:34;;;;;;;4.32;2.00;;;;;;;16.26;76.65;100204.66;4131679;28;20049;-60
2023/05/10 08:00:39;;;;;;;2.47;1.83;;;;;;;16.26;77.20;100199.41;4131499;28;20034;-60
2023/05/10 08:02:42;;;;;;;2.95;1.95;;;;;;;16.19;77.42;100202.13;4131278;28;20077;-61
2023/05/10 08:04:45;;;;;;;5.22;1.60;;;;;;;16.22;77.08;100211.69;4114172;28;20069;-60
2023/05/10 08:06:49;;;;;;;5.28;2.83;;;;;;;16.07;76.29;100201.41;4131567;28;20048;-60
2023/05/10 08:08:53;;;;;;;2.70;1.65;;;;;;;16.00;76.43;100200.59;4131615;28;20042;-60
2023/05/10 08:10:56;;;;;;;2.85;1.90;;;;;;;16.03;76.36;100204.06;4131769;28;20125;-61
2023/05/10 08:12:59;;;;;;;3.25;1.90;;;;;;;16.03;76.01;100205.78;4131069;28;20393;-61
2023/05/10 08:15:02;;;;;;;4.00;2.38;;;;;;;16.10;76.54;100203.97;4114192;28;20101;-61
2023/05/10 08:17:05;;;;;;;2.88;1.50;;;;;;;16.13;76.80;100206.56;4131557;28;20102;-60
2023/05/10 08:19:08;;;;;;;3.17;1.23;;;;;;;16.15;76.27;100203.03;4131546;28;20047;-60
2023/05/10 08:21:11;;;;;;;4.20;1.85;;;;;;;16.26;76.38;100208.13;4131558;28;20038;-60
2023/05/10 08:23:15;;;;;;;3.90;1.63;;;;;;;16.32;75.89;100197.53;4114157;28;20043;-61
2023/05/10 08:25:18;;;;;;;1.52;1.42;;;;;;;16.40;76.35;100206.19;4114139;28;20047;-61
2023/05/10 08:27:21;;;;;;;2.20;1.70;;;;;;;16.42;76.47;100202.69;4131538;28;20046;-61
2023/05/10 08:29:24;;;;;;;4.43;1.40;;;;;;;16.40;76.19;100206.19;4114284;28;20046;-60
2023/05/10 08:31:30;;;;;;;5.95;1.60;;;;;;;16.38;75.22;100207.97;4131423;28;20097;-61
2023/05/10 08:33:32;;;;;;;4.55;1.30;;;;;;;16.39;74.79;100214.09;4131121;28;20408;-60
2023/05/10 08:35:35;;;;;;;3.30;1.90;;;;;;;16.33;75.68;100209.78;4114289;28;20465;-59
2023/05/10 08:37:40;;;;;;;2.75;1.17;;;;;;;16.24;74.46;100212.53;4131445;28;20112;-61
2023/05/10 08:39:45;;;;;;;5.65;1.30;;;;;;;16.12;74.21;100216.19;4131302;28;20042;-61
2023/05/10 08:41:50;;;;;;;1.88;1.17;;;;;;;16.10;73.13;100214.47;4131351;28;20046;-61
2023/05/10 08:43:54;;;;;;;1.98;1.00;;;;;;;15.98;72.79;100218.13;4131087;28;20104;-60
2023/05/10 08:46:00;;;;;;;4.38;1.30;;;;;;;15.94;72.90;100222.50;4131389;28;20043;-60
2023/05/10 08:48:07;;;;;;;2.85;1.10;;;;;;;15.97;73.12;100224.22;4114094;28;20413;-61
2023/05/10 08:50:11;;;;;;;4.47;1.35;;;;;;;15.96;73.19;100225.09;4131390;28;20046;-61
2023/05/10 08:52:16;;;;;;;4.88;1.83;;;;;;;15.97;73.25;100221.59;4131123;28;20469;-61
2023/05/10 08:54:19;;;;;;;5.95;1.52;;;;;;;15.94;72.84;100230.38;4113908;28;20114;-61
2023/05/10 08:56:24;;;;;;;7.65;1.40;;;;;;;15.92;72.93;100226.91;4131264;28;20097;-61
2023/05/10 08:58:27;;;;;;;5.30;1.30;;;;;;;15.96;73.12;100231.25;4131260;28;20050;-61
2023/05/10 09:00:30;;;;;;;2.17;0.90;;;;;;;15.86;71.39;100232.22;4131115;28;20039;-61
2023/05/10 09:02:33;;;;;;;1.98;1.30;;;;;;;15.83;72.07;100230.50;4113655;28;20112;-61
2023/05/10 09:04:36;;;;;;;4.45;1.30;;;;;;;15.84;72.85;100240.13;4113821;28;20046;-61
2023/05/10 09:06:40;;;;;;;2.05;1.23;;;;;;;15.91;72.97;100240.91;4113892;28;20051;-61
2023/05/10 09:08:44;;;;;;;1.95;1.13;;;;;;;15.81;71.91;100242.78;4113849;28;20134;-60
2023/05/10 09:10:49;;;;;;;3.33;1.58;;;;;;;15.70;72.56;100245.47;4113853;28;20051;-61
2023/05/10 09:12:54;;;;;;;1.48;1.10;;;;;;;15.68;73.03;100236.75;4130926;28;20038;-60
2023/05/10 09:15:00;;;;;;;2.88;1.00;;;;;;;15.73;72.96;100243.72;4130998;28;20412;-60
2023/05/10 09:17:03;;;;;;;2.13;1.20;;;;;;;15.78;72.61;100242.78;4113776;28;20053;-61
2023/05/10 09:19:06;;;;;;;3.05;1.25;;;;;;;15.91;72.39;100253.16;4129938;28;20046;-60
2023/05/10 09:21:10;;;;;;;5.23;1.30;;;;;;;16.01;73.05;100250.41;4113739;28;20080;-61
2023/05/10 09:23:13;;;;;;;2.57;1.10;;;;;;;16.13;72.77;100251.16;4130806;28;20089;-61
2023/05/10 09:25:17;;;;;;;3.20;1.40;;;;;;;16.21;72.65;100247.53;4114055;28;20043;-61
2023/05/10 09:27:27;;;;;;;2.92;1.02;;;;;;;16.24;71.82;100244.00;4134030;28;20452;-60
2023/05/10 09:29:41;;;;;;;1.70;1.15;;;;;;;16.35;71.56;100250.00;4116728;28;20038;-61
2023/05/10 09:31:47;;;;;;;2.38;1.00;;;;;;;16.45;71.79;100244.63;4116949;28;20047;-61
2023/05/10 09:33:50;;;;;;;3.28;1.10;;;;;;;16.51;72.11;100239.28;4116310;28;20121;-61
2023/05/10 09:35:53;;;;;;;4.10;1.23;;;;;;;16.47;71.93;100248.09;4133910;28;20113;-61
2023/05/10 09:37:58;;;;;;;2.00;1.20;;;;;;;16.42;72.14;100260.41;4133839;28;20039;-60
2023/05/10 09:40:01;;;;;;;1.42;1.08;;;;;;;16.36;72.04;100263.97;4133741;28;20042;-61